DGAA/ACC METAR and TAF weather

Enter ICAO airport designator
Station Type Date Time Source
DGAA METAR 2020/10/20 17:00 UTC NOAA

DGAA 201700Z 21014KT 9999 FEW016 FEW030CB 28/24 Q1011 NOSIG


Station Type Date Time Source
DGAA Decoded METAR 2020/10/20 17:00 UTC NOAA

Accra, Ghana (DGAA) 05-36N 000-10W 69M
Oct 20, 2020 - 01:00 PM EDT / 2020.10.20 1700 UTC
Wind: from the SSW (210 degrees) at 16 MPH (14 KT):0
Visibility: greater than 7 mile(s):0
Sky conditions: mostly clear
Weather: Cumulonimbus clouds observed
Temperature: 82 F (28 C)
Dew Point: 75 F (24 C)
Relative Humidity: 78%
Pressure (altimeter): 29.85 in. Hg (1011 hPa)
ob: DGAA 201700Z 21014KT 9999 FEW016 FEW030CB 28/24 Q1011 NOSIG
cycle: 17

Station Type Date Time Source
DGAA TAF 2020/10/20 18:21 UTC NOAA

TAF TAF DGAA 201700Z 2018/2124 20010KT 9999 BKN011
TEMPO 2018/2022 5000 TSRA BKN010 SCT025CB
BECMG 2105/2107 27007KT FEW014
TEMPO 2116/2120 FEW030CB

Example: see airport list